createdAt,value
2023-09-16T00:04:34.810Z,6.73
2023-09-16T00:09:39.826Z,6.07
2023-09-16T00:14:43.020Z,4.13
2023-09-16T00:19:46.508Z,4.03
2023-09-16T00:24:49.849Z,4.27
2023-09-16T00:29:53.009Z,4.73
2023-09-16T00:34:55.941Z,4.27
2023-09-16T00:39:59.003Z,3.90
2023-09-16T00:45:02.023Z,3.37
2023-09-16T00:50:08.938Z,3.03
2023-09-16T00:55:12.366Z,3.13
2023-09-16T01:00:17.909Z,3.43
2023-09-16T01:05:21.365Z,3.87
2023-09-16T01:10:24.442Z,3.20
2023-09-16T01:15:34.868Z,3.83
2023-09-16T01:20:40.521Z,3.60
2023-09-16T01:25:43.677Z,3.47
2023-09-16T01:30:50.275Z,2.57
2023-09-16T01:36:13.645Z,2.83
2023-09-16T01:41:20.720Z,2.73
2023-09-16T01:46:23.874Z,4.00
2023-09-16T01:51:27.025Z,2.97
2023-09-16T01:56:30.480Z,2.97
2023-09-16T02:01:33.675Z,2.67
2023-09-16T02:06:36.766Z,2.93
2023-09-16T02:11:39.968Z,2.47
2023-09-16T02:16:43.325Z,2.63
2023-09-16T02:21:46.549Z,3.40
2023-09-16T02:26:49.769Z,3.33
2023-09-16T02:31:52.958Z,3.00
2023-09-16T02:36:56.127Z,2.80
2023-09-16T02:41:59.170Z,2.97
2023-09-16T02:47:02.246Z,3.20
2023-09-16T02:52:05.428Z,3.20
2023-09-16T02:57:08.602Z,2.70
2023-09-16T03:02:11.835Z,2.70
2023-09-16T03:07:14.840Z,2.43
2023-09-16T03:12:17.821Z,2.63
2023-09-16T03:17:21.172Z,3.10
2023-09-16T03:22:24.208Z,2.70
2023-09-16T03:27:27.318Z,2.47
2023-09-16T03:32:31.065Z,2.60
2023-09-16T03:37:34.099Z,2.83
2023-09-16T03:42:37.196Z,2.03
2023-09-16T03:47:40.275Z,2.33
2023-09-16T03:52:43.276Z,2.90
2023-09-16T03:57:46.418Z,3.10
2023-09-16T04:02:49.625Z,2.77
2023-09-16T04:07:52.931Z,2.90
2023-09-16T04:12:56.132Z,2.53
2023-09-16T04:17:59.605Z,2.90
2023-09-16T04:23:02.862Z,2.63
2023-09-16T04:28:06.655Z,3.27
2023-09-16T04:33:10.988Z,3.10
2023-09-16T04:38:15.068Z,2.40
2023-09-16T04:43:18.196Z,2.50
2023-09-16T04:48:24.087Z,3.03
2023-09-16T04:53:27.238Z,2.57
2023-09-16T04:58:30.390Z,2.70
2023-09-16T05:03:34.235Z,3.27
2023-09-16T05:08:37.637Z,2.87
2023-09-16T05:13:40.650Z,2.53
2023-09-16T05:18:43.973Z,3.23
2023-09-16T05:23:48.188Z,3.10
2023-09-16T05:28:52.123Z,3.40
2023-09-16T05:33:55.163Z,2.77
2023-09-16T05:38:58.752Z,3.20
2023-09-16T05:44:03.064Z,2.60
2023-09-16T05:49:10.433Z,2.47
2023-09-16T05:54:15.298Z,3.00
2023-09-16T05:59:18.484Z,2.97
2023-09-16T06:04:21.608Z,3.20
2023-09-16T06:09:24.828Z,3.10
2023-09-16T06:14:27.948Z,3.50
2023-09-16T06:19:31.544Z,3.77
2023-09-16T06:24:34.749Z,3.87
2023-09-16T06:29:37.778Z,4.37
2023-09-16T06:34:40.855Z,3.77
2023-09-16T06:39:47.294Z,3.97
2023-09-16T06:44:55.911Z,4.47
2023-09-16T06:49:59.449Z,4.37
2023-09-16T06:55:02.535Z,3.63
2023-09-16T07:00:07.406Z,2.87
2023-09-16T07:05:12.309Z,2.30
2023-09-16T07:10:16.185Z,2.63
2023-09-16T07:15:21.126Z,2.57
2023-09-16T07:20:24.667Z,2.50
2023-09-16T07:25:27.942Z,2.50
2023-09-16T07:30:31.061Z,2.00
2023-09-16T07:35:34.181Z,2.40
2023-09-16T07:40:39.468Z,2.90
2023-09-16T07:45:43.452Z,2.70
2023-09-16T07:50:47.201Z,2.38
2023-09-16T07:55:50.335Z,2.45
2023-09-16T08:00:54.753Z,2.53
2023-09-16T08:05:58.642Z,2.83
2023-09-16T08:11:01.896Z,1.90
2023-09-16T08:16:05.237Z,2.20
2023-09-16T08:21:08.866Z,2.42
2023-09-16T08:26:11.872Z,2.15
2023-09-16T08:31:14.920Z,1.95
2023-09-16T08:36:18.997Z,2.05
2023-09-16T08:41:57.911Z,1.80
2023-09-16T08:47:08.244Z,1.90
2023-09-16T08:52:13.224Z,2.42
2023-09-16T08:57:18.235Z,1.90
2023-09-16T09:02:22.558Z,1.98
2023-09-16T09:07:27.289Z,2.20
2023-09-16T09:12:31.413Z,2.08
2023-09-16T09:17:42.660Z,2.22
2023-09-16T09:22:47.239Z,2.20
2023-09-16T09:27:52.250Z,1.88
2023-09-16T09:32:59.643Z,1.90
2023-09-16T09:38:02.706Z,1.88
2023-09-16T09:43:06.208Z,2.10
2023-09-16T09:48:09.319Z,1.50
2023-09-16T09:53:12.526Z,2.38
2023-09-16T09:58:15.746Z,2.10
2023-09-16T10:03:20.702Z,2.03
2023-09-16T10:08:23.912Z,1.88
2023-09-16T10:13:26.995Z,1.48
2023-09-16T10:18:30.543Z,2.15
2023-09-16T10:23:33.850Z,2.08
2023-09-16T10:28:53.684Z,1.60
2023-09-16T10:33:58.440Z,1.60
2023-09-16T10:39:03.356Z,1.83
2023-09-16T10:44:07.809Z,1.70
2023-09-16T10:49:11.317Z,1.27
2023-09-16T10:54:25.623Z,1.17
2023-09-16T10:59:31.590Z,1.80
2023-09-16T11:04:34.769Z,1.50
2023-09-16T11:09:38.718Z,1.70
2023-09-16T11:14:41.920Z,1.80
2023-09-16T11:19:44.960Z,1.95
2023-09-16T11:24:54.929Z,1.30
2023-09-16T11:29:57.935Z,2.08
2023-09-16T11:35:04.291Z,1.48
2023-09-16T11:40:10.430Z,1.42
2023-09-16T11:45:16.539Z,1.85
2023-09-16T11:50:28.167Z,1.90
2023-09-16T11:55:31.426Z,1.73
2023-09-16T12:00:34.646Z,1.65
2023-09-16T12:05:38.537Z,1.73
2023-09-16T12:10:41.856Z,1.40
2023-09-16T12:15:45.068Z,1.55
2023-09-16T12:20:50.629Z,2.03
2023-09-16T12:25:54.391Z,1.58
2023-09-16T12:30:57.868Z,1.70
2023-09-16T12:36:01.159Z,1.35
2023-09-16T12:41:05.236Z,1.60
2023-09-16T12:46:09.647Z,1.80
2023-09-16T12:51:13.751Z,1.20
2023-09-16T12:56:20.829Z,1.65
2023-09-16T13:01:25.239Z,1.75
2023-09-16T13:06:29.984Z,1.58
2023-09-16T13:11:34.840Z,1.63
2023-09-16T13:16:40.164Z,1.70
2023-09-16T13:21:43.525Z,1.40
2023-09-16T13:26:51.144Z,2.08
2023-09-16T13:32:06.590Z,2.03
2023-09-16T13:37:10.151Z,2.08
2023-09-16T13:42:14.599Z,1.70
2023-09-16T13:47:18.309Z,1.65
2023-09-16T13:52:22.044Z,1.63
2023-09-16T13:57:25.388Z,1.90
2023-09-16T14:02:28.551Z,2.05
2023-09-16T14:07:32.096Z,2.10
2023-09-16T14:12:38.232Z,1.98
2023-09-16T14:17:42.648Z,1.77
2023-09-16T14:22:48.377Z,2.40
2023-09-16T14:27:51.495Z,1.90
2023-09-16T14:32:55.052Z,1.75
2023-09-16T14:37:58.063Z,2.25
2023-09-16T14:43:01.702Z,1.70
2023-09-16T14:48:05.222Z,2.03
2023-09-16T14:53:08.326Z,2.03
2023-09-16T14:58:12.057Z,1.98
2023-09-16T15:03:15.588Z,2.17
2023-09-16T15:08:19.409Z,2.05
2023-09-16T15:13:22.857Z,2.08
2023-09-16T15:18:26.546Z,1.77
2023-09-16T15:23:30.276Z,1.92
2023-09-16T15:28:33.934Z,2.42
2023-09-16T15:33:37.533Z,2.22
2023-09-16T15:38:43.412Z,2.50
2023-09-16T15:43:47.071Z,1.95
2023-09-16T15:48:50.462Z,2.20
2023-09-16T15:53:54.014Z,2.10
2023-09-16T15:58:57.171Z,2.67
2023-09-16T16:04:00.721Z,2.83
2023-09-16T16:09:04.122Z,2.40
2023-09-16T16:14:11.106Z,2.67
2023-09-16T16:19:15.282Z,2.50
2023-09-16T16:24:18.812Z,2.65
2023-09-16T16:29:23.684Z,2.40
2023-09-16T16:34:27.099Z,2.55
2023-09-16T16:39:30.278Z,2.35
2023-09-16T16:44:33.872Z,3.10
2023-09-16T16:49:37.653Z,2.92
2023-09-16T16:54:40.655Z,2.53
2023-09-16T16:59:44.695Z,2.85
2023-09-16T17:04:48.188Z,4.28
2023-09-16T17:09:52.764Z,4.05
2023-09-16T17:14:56.322Z,3.80
2023-09-16T17:20:01.226Z,2.40
2023-09-16T17:25:06.015Z,2.70
2023-09-16T17:30:10.341Z,2.80
2023-09-16T17:35:13.833Z,3.17
2023-09-16T17:40:17.540Z,2.92
2023-09-16T17:45:20.890Z,3.33
2023-09-16T17:50:24.251Z,3.30
2023-09-16T17:55:29.284Z,2.95
2023-09-16T18:00:33.109Z,3.38
2023-09-16T18:05:38.461Z,5.35
2023-09-16T18:10:41.942Z,7.45
2023-09-16T18:15:45.293Z,5.88
2023-09-16T18:20:49.477Z,3.97
2023-09-16T18:25:53.133Z,4.53
2023-09-16T18:30:56.318Z,4.70
2023-09-16T18:36:00.276Z,3.92
2023-09-16T18:41:03.863Z,4.20
2023-09-16T18:46:08.162Z,4.30
2023-09-16T18:51:12.291Z,3.97
2023-09-16T18:56:16.013Z,4.10
2023-09-16T19:01:20.589Z,4.13
2023-09-16T19:06:25.096Z,6.07
2023-09-16T19:11:29.409Z,6.10
2023-09-16T19:16:34.447Z,3.65
2023-09-16T19:21:39.163Z,4.72
2023-09-16T19:26:44.516Z,4.57
2023-09-16T19:31:48.288Z,5.70
2023-09-16T19:36:55.527Z,5.30
2023-09-16T19:42:01.409Z,4.88
2023-09-16T19:47:07.226Z,5.10
2023-09-16T19:52:11.799Z,4.45
2023-09-16T19:57:19.146Z,3.83
2023-09-16T20:02:23.729Z,5.10
2023-09-16T20:07:29.821Z,4.43
2023-09-16T20:12:35.649Z,4.73
2023-09-16T20:17:39.644Z,4.97
2023-09-16T20:22:45.294Z,4.28
2023-09-16T20:27:48.874Z,6.25
2023-09-16T20:32:52.765Z,6.25
2023-09-16T20:38:01.281Z,6.00
2023-09-16T20:43:05.467Z,5.70
2023-09-16T20:48:09.777Z,5.63
2023-09-16T20:53:13.648Z,4.43
2023-09-16T20:58:18.745Z,4.80
2023-09-16T21:03:22.550Z,4.57
2023-09-16T21:08:25.853Z,5.13
2023-09-16T21:13:28.851Z,5.50
2023-09-16T21:18:32.065Z,5.80
2023-09-16T21:23:35.124Z,6.57
2023-09-16T21:28:38.236Z,5.57
2023-09-16T21:33:41.606Z,6.00
2023-09-16T21:38:44.798Z,5.60
2023-09-16T21:43:49.438Z,5.20
2023-09-16T21:48:52.945Z,5.70
2023-09-16T21:53:56.338Z,5.30
2023-09-16T21:58:59.774Z,5.43
2023-09-16T22:04:05.311Z,4.27
2023-09-16T22:09:09.180Z,4.90
2023-09-16T22:14:12.578Z,4.90
2023-09-16T22:19:15.689Z,5.17
2023-09-16T22:24:18.736Z,4.97
2023-09-16T22:29:21.762Z,7.87
2023-09-16T22:34:24.911Z,10.67
2023-09-16T22:39:28.031Z,6.90
2023-09-16T22:44:31.067Z,5.27
2023-09-16T22:49:53.782Z,4.00
2023-09-16T22:54:56.942Z,4.00
2023-09-16T23:00:01.398Z,3.67
2023-09-16T23:05:05.679Z,3.77
2023-09-16T23:10:08.918Z,3.90
2023-09-16T23:15:12.009Z,3.40
2023-09-16T23:20:15.137Z,4.63
2023-09-16T23:25:18.201Z,3.60
2023-09-16T23:30:21.200Z,3.60
2023-09-16T23:35:24.451Z,3.97
2023-09-16T23:40:27.913Z,4.17
2023-09-16T23:45:30.952Z,4.23
2023-09-16T23:50:34.380Z,4.20
2023-09-16T23:55:38.965Z,5.10
